Vingaren — OZ2131 — position and weather

sailwx.info

Track history (hours):
 
Tides and Currents Weather Stations Pressure Air Temp Water Temp Dewpoint Dewpoint Depression Visibility Wind Speed Wind Dir Waves Ship Positions

Vingaren

Last reported at 2016-May-25 06:23 UTC. Time now 2016-May-27 10:20 UTC.
Position N 55°49' E 015°59'.

Length 89 m; draft 3.8 m.

Type: Cargo ship. MMSI: 231844000.

Date/timePositionNaut miles runAvg speedWind from/ knotsBaromVisibWave heightAir tempDewpointWater temp
2016-May-25 06:23N 55°49' E 015°59'8 9.0
2016-May-25 05:32N 55°45' E 015°47'9 9.4
2016-May-25 04:32N 55°40' E 015°33'9 9.3
2016-May-25 03:34N 55°36' E 015°19'10 9.5
2016-May-25 02:33N 55°31' E 015°04'10 9.5
2016-May-25 01:33N 55°26' E 014°50'9 9.4
2016-May-25 00:33N 55°21' E 014°36'9 9.5
2016-May-24 23:34N 55°14' E 014°24'9 9.1
2016-May-24 22:34N 55°11' E 014°09'9 9.5
2016-May-24 21:34N 55°11' E 013°53'9 9.4
2016-May-24 20:34N 55°12' E 013°36'9 9.3
2016-May-24 19:34N 55°13' E 013°20'10 9.5
2016-May-24 18:34N 55°14' E 013°03'10 9.6
2016-May-24 17:34N 55°16' E 012°47'8 7.7
2016-May-24 16:33N 55°22' E 012°39'10 9.7
2016-May-24 15:34N 55°32' E 012°42'10 9.9
2016-May-24 14:34N 55°42' E 012°41'1010.0
2016-May-24 13:34N 55°52' E 012°44'4 3.4
2016-May-24 12:31N 55°52' E 012°50'0 0.0
2016-May-24 11:31N 55°52' E 012°50'0 0.0
2016-May-24 10:31N 55°52' E 012°50'0 0.0
2016-May-24 09:31N 55°52' E 012°50'0 0.0
2016-May-24 08:31N 55°52' E 012°50'0 0.0
2016-May-24 07:31N 55°52' E 012°50'0 0.0
2016-May-24 06:31N 55°52' E 012°50'0 0.0
2016-May-24 05:31N 55°52' E 012°50'0 0.0
2016-May-24 04:31N 55°52' E 012°50'0 0.0
2016-May-24 03:31N 55°52' E 012°50'0 0.0
2016-May-24 02:31N 55°52' E 012°50'0 0.0
2016-May-24 01:31N 55°52' E 012°50'0 0.0
2016-May-24 00:31N 55°52' E 012°50'0 0.0
2016-May-23 23:31N 55°52' E 012°50'0 0.0
2016-May-23 22:31N 55°52' E 012°50'0 0.0
2016-May-23 21:31N 55°52' E 012°50'0 0.0
2016-May-23 20:31N 55°52' E 012°50'0 0.0
2016-May-23 19:31N 55°52' E 012°50'0 0.0
2016-May-23 18:31N 55°52' E 012°50'0 0.0
2016-May-23 17:31N 55°52' E 012°50'0 0.0
2016-May-23 16:31N 55°52' E 012°50'0 0.0
2016-May-23 15:31N 55°52' E 012°50'0 0.0
2016-May-23 14:28N 55°52' E 012°50'0 0.0
2016-May-23 13:33N 55°52' E 012°50'0 0.0
2016-May-23 12:33N 55°52' E 012°50'0 0.0
2016-May-23 11:33N 55°52' E 012°50'0 0.0
2016-May-23 10:33N 55°52' E 012°50'0 0.0
2016-May-23 09:33N 55°52' E 012°50'0 0.0
2016-May-23 08:27N 55°52' E 012°50'0 0.0
2016-May-23 07:33N 55°52' E 012°50'0 0.0
2016-May-23 06:33N 55°52' E 012°50'0 0.0
2016-May-23 05:33N 55°52' E 012°50'0 0.0
2016-May-23 04:33N 55°52' E 012°50'0 0.0
2016-May-23 03:33N 55°52' E 012°50'0 0.0
2016-May-23 02:33N 55°52' E 012°50'0 0.0
2016-May-23 01:33N 55°52' E 012°50'0 0.0
2016-May-23 00:33N 55°52' E 012°50'0 0.0
2016-May-22 23:33N 55°52' E 012°50'0 0.0
2016-May-22 22:33N 55°52' E 012°50'0 0.0
2016-May-22 21:33N 55°52' E 012°50'0 0.0
2016-May-22 20:33N 55°52' E 012°50'0 0.0
2016-May-22 19:33N 55°52' E 012°50'0 0.0
2016-May-22 18:33N 55°52' E 012°50'0 0.0
2016-May-22 17:33N 55°52' E 012°50'0 0.0
2016-May-22 16:33N 55°52' E 012°50'0 0.0
2016-May-22 15:33N 55°52' E 012°50'0 0.0
2016-May-22 14:33N 55°52' E 012°50'0 0.0
2016-May-22 13:33N 55°52' E 012°50'0 0.0
2016-May-22 12:33N 55°52' E 012°50'0 0.0
2016-May-22 11:30N 55°52' E 012°50'0 0.0
2016-May-22 10:33N 55°52' E 012°50'0 0.0
2016-May-22 09:33N 55°52' E 012°50'0 0.0
2016-May-22 08:33N 55°52' E 012°50'0 0.0
2016-May-22 07:33N 55°52' E 012°50'0 0.0
2016-May-22 06:33N 55°52' E 012°50'0 0.0
2016-May-22 05:33N 55°52' E 012°50'0 0.0
2016-May-22 04:33N 55°52' E 012°50'0 0.0
2016-May-22 03:32N 55°52' E 012°50'0 0.0
2016-May-22 02:32N 55°52' E 012°50'0 0.0
2016-May-22 01:32N 55°52' E 012°50'0 0.0
2016-May-22 00:32N 55°52' E 012°50'0 0.0
2016-May-21 23:32N 55°52' E 012°50'0 0.0
2016-May-21 22:32N 55°52' E 012°50'0 0.0
2016-May-21 21:32N 55°52' E 012°50'0 0.0
2016-May-21 20:32N 55°52' E 012°50'0 0.0
2016-May-21 19:32N 55°52' E 012°50'0 0.0
2016-May-21 18:32N 55°52' E 012°50'0 0.0
2016-May-21 17:32N 55°52' E 012°50'0 0.0
2016-May-21 16:32N 55°52' E 012°50'0 0.0
2016-May-21 15:32N 55°52' E 012°50'0 0.0
2016-May-21 14:32N 55°52' E 012°50'0 0.0
2016-May-21 13:32N 55°52' E 012°50'0 0.0
2016-May-21 12:32N 55°52' E 012°50'0 0.0
2016-May-21 11:32N 55°52' E 012°50'0 0.0
2016-May-21 10:32N 55°52' E 012°50'0 0.0
2016-May-21 09:32N 55°52' E 012°50'0 0.0
2016-May-21 08:32N 55°52' E 012°50'0 0.0
2016-May-21 07:32N 55°52' E 012°50'0 0.0
2016-May-21 06:32N 55°52' E 012°50'0 0.0
2016-May-21 05:32N 55°52' E 012°50'0 0.0
2016-May-21 04:32N 55°52' E 012°50'0 0.0
2016-May-21 03:32N 55°52' E 012°50'0 0.0
2016-May-21 02:32N 55°52' E 012°50'0 0.0
2016-May-21 01:32N 55°52' E 012°50'0 0.0
2016-May-21 00:32N 55°52' E 012°50'0 0.0
2016-May-20 23:32N 55°52' E 012°50'0 0.0
2016-May-20 22:32N 55°52' E 012°50'0 0.0
2016-May-20 21:32N 55°52' E 012°50'0 0.0
2016-May-20 20:32N 55°52' E 012°50'0 0.0
2016-May-20 19:32N 55°52' E 012°50'0 0.0
2016-May-20 18:31N 55°52' E 012°50'0 0.0
2016-May-20 17:31N 55°52' E 012°50'0 0.2
2016-May-20 16:33N 55°52' E 012°50'3 2.9
2016-May-20 15:33N 55°51' E 012°45'6 5.8
2016-May-20 14:33N 55°46' E 012°42'9 8.8
2016-May-20 13:34N 55°37' E 012°42'1010.3
2016-May-20 12:34N 55°27' E 012°42'9 9.0
2016-May-20 11:34N 55°18' E 012°45'1010.3
2016-May-20 10:34N 55°16' E 013°03'1010.2
2016-May-20 09:33N 55°15' E 013°21'1010.3
2016-May-20 08:33N 55°15' E 013°39'1110.7
2016-May-20 07:34N 55°14' E 013°57'1110.5
2016-May-20 06:33N 55°14' E 014°16'1110.6
2016-May-20 05:33N 55°22' E 014°29'1110.6
2016-May-20 04:33N 55°28' E 014°44'1110.8
2016-May-20 03:33N 55°34' E 014°60'1110.8
2016-May-20 02:33N 55°40' E 015°16'1110.8
2016-May-20 01:33N 55°45' E 015°33'300 9.7
2016-May-18 18:31N 59°19' E 022°05'10 9.5
2016-May-18 17:28N 59°25' E 022°21'20 9.4
2016-May-18 15:17N 59°34' E 022°58'7 9.6
2016-May-18 14:33N 59°36' E 023°11'9 9.5
2016-May-18 13:34N 59°38' E 023°29'1010.0
2016-May-18 12:33N 59°41' E 023°48'1010.1
2016-May-18 11:33N 59°44' E 024°07'49 9.8
2016-May-18 06:33N 59°55' E 025°42'10 9.6
2016-May-18 05:32N 59°57' E 026°01'9 9.6
2016-May-18 04:33N 59°60' E 026°20'10 9.6
2016-May-18 03:33N 60°01' E 026°39'10 9.6
2016-May-18 02:32N 59°60' E 026°58'10 9.2
2016-May-18 01:30N 60°03' E 027°16'9 9.3
2016-May-18 00:33N 60°08' E 027°31'10 9.6
2016-May-17 23:33N 60°13' E 027°47'10 9.5
2016-May-17 22:33N 60°21' E 027°59'12 9.2
2016-May-17 21:14N 60°28' E 028°18'20 0.5
2016-May-16 05:30N 60°14' E 027°50'1010.1
2016-May-16 04:33N 60°08' E 027°36'1010.1
2016-May-16 03:33N 60°03' E 027°18'1010.0
2016-May-16 02:33N 59°58' E 027°00'10 9.9
2016-May-16 01:33N 59°59' E 026°41'1010.2
2016-May-16 00:34N 59°57' E 026°21'1010.2
2016-May-15 23:33N 59°54' E 026°02'6310.5
2016-May-15 17:32N 59°39' E 023°60'1110.4
2016-May-15 16:30N 59°35' E 023°40'1010.3
2016-May-15 15:29N 59°32' E 023°20'  
Track history (hours):
 
Tides and Currents Weather Stations Pressure Air Temp Water Temp Dewpoint Dewpoint Depression Visibility Wind Speed Wind Dir Waves Ship Positions

Vingaren

Last reported at 2016-May-25 06:23 UTC. Time now 2016-May-27 10:20 UTC.
Position N 55°49' E 015°59'.

Length 89 m; draft 3.8 m.

Type: Cargo ship. MMSI: 231844000.

Date/timePositionNaut miles runAvg speedWind from/ knotsBaromVisibWave heightAir tempDewpointWater temp
2016-May-25 06:23N 55°49' E 015°59'8 9.0
2016-May-25 05:32N 55°45' E 015°47'9 9.4
2016-May-25 04:32N 55°40' E 015°33'9 9.3
2016-May-25 03:34N 55°36' E 015°19'10 9.5
2016-May-25 02:33N 55°31' E 015°04'10 9.5
2016-May-25 01:33N 55°26' E 014°50'9 9.4
2016-May-25 00:33N 55°21' E 014°36'9 9.5
2016-May-24 23:34N 55°14' E 014°24'9 9.1
2016-May-24 22:34N 55°11' E 014°09'9 9.5
2016-May-24 21:34N 55°11' E 013°53'9 9.4
2016-May-24 20:34N 55°12' E 013°36'9 9.3
2016-May-24 19:34N 55°13' E 013°20'10 9.5
2016-May-24 18:34N 55°14' E 013°03'10 9.6
2016-May-24 17:34N 55°16' E 012°47'8 7.7
2016-May-24 16:33N 55°22' E 012°39'10 9.7
2016-May-24 15:34N 55°32' E 012°42'10 9.9
2016-May-24 14:34N 55°42' E 012°41'1010.0
2016-May-24 13:34N 55°52' E 012°44'4 3.4
2016-May-24 12:31N 55°52' E 012°50'0 0.0
2016-May-24 11:31N 55°52' E 012°50'0 0.0
2016-May-24 10:31N 55°52' E 012°50'0 0.0
2016-May-24 09:31N 55°52' E 012°50'0 0.0
2016-May-24 08:31N 55°52' E 012°50'0 0.0
2016-May-24 07:31N 55°52' E 012°50'0 0.0
2016-May-24 06:31N 55°52' E 012°50'0 0.0
2016-May-24 05:31N 55°52' E 012°50'0 0.0
2016-May-24 04:31N 55°52' E 012°50'0 0.0
2016-May-24 03:31N 55°52' E 012°50'0 0.0
2016-May-24 02:31N 55°52' E 012°50'0 0.0
2016-May-24 01:31N 55°52' E 012°50'0 0.0
2016-May-24 00:31N 55°52' E 012°50'0 0.0
2016-May-23 23:31N 55°52' E 012°50'0 0.0
2016-May-23 22:31N 55°52' E 012°50'0 0.0
2016-May-23 21:31N 55°52' E 012°50'0 0.0
2016-May-23 20:31N 55°52' E 012°50'0 0.0
2016-May-23 19:31N 55°52' E 012°50'0 0.0
2016-May-23 18:31N 55°52' E 012°50'0 0.0
2016-May-23 17:31N 55°52' E 012°50'0 0.0
2016-May-23 16:31N 55°52' E 012°50'0 0.0
2016-May-23 15:31N 55°52' E 012°50'0 0.0
2016-May-23 14:28N 55°52' E 012°50'0 0.0
2016-May-23 13:33N 55°52' E 012°50'0 0.0
2016-May-23 12:33N 55°52' E 012°50'0 0.0
2016-May-23 11:33N 55°52' E 012°50'0 0.0
2016-May-23 10:33N 55°52' E 012°50'0 0.0
2016-May-23 09:33N 55°52' E 012°50'0 0.0
2016-May-23 08:27N 55°52' E 012°50'0 0.0
2016-May-23 07:33N 55°52' E 012°50'0 0.0
2016-May-23 06:33N 55°52' E 012°50'0 0.0
2016-May-23 05:33N 55°52' E 012°50'0 0.0
2016-May-23 04:33N 55°52' E 012°50'0 0.0
2016-May-23 03:33N 55°52' E 012°50'0 0.0
2016-May-23 02:33N 55°52' E 012°50'0 0.0
2016-May-23 01:33N 55°52' E 012°50'0 0.0
2016-May-23 00:33N 55°52' E 012°50'0 0.0
2016-May-22 23:33N 55°52' E 012°50'0 0.0
2016-May-22 22:33N 55°52' E 012°50'0 0.0
2016-May-22 21:33N 55°52' E 012°50'0 0.0
2016-May-22 20:33N 55°52' E 012°50'0 0.0
2016-May-22 19:33N 55°52' E 012°50'0 0.0
2016-May-22 18:33N 55°52' E 012°50'0 0.0
2016-May-22 17:33N 55°52' E 012°50'0 0.0
2016-May-22 16:33N 55°52' E 012°50'0 0.0
2016-May-22 15:33N 55°52' E 012°50'0 0.0
2016-May-22 14:33N 55°52' E 012°50'0 0.0
2016-May-22 13:33N 55°52' E 012°50'0 0.0
2016-May-22 12:33N 55°52' E 012°50'0 0.0
2016-May-22 11:30N 55°52' E 012°50'0 0.0
2016-May-22 10:33N 55°52' E 012°50'0 0.0
2016-May-22 09:33N 55°52' E 012°50'0 0.0
2016-May-22 08:33N 55°52' E 012°50'0 0.0
2016-May-22 07:33N 55°52' E 012°50'0 0.0
2016-May-22 06:33N 55°52' E 012°50'0 0.0
2016-May-22 05:33N 55°52' E 012°50'0 0.0
2016-May-22 04:33N 55°52' E 012°50'0 0.0
2016-May-22 03:32N 55°52' E 012°50'0 0.0
2016-May-22 02:32N 55°52' E 012°50'0 0.0
2016-May-22 01:32N 55°52' E 012°50'0 0.0
2016-May-22 00:32N 55°52' E 012°50'0 0.0
2016-May-21 23:32N 55°52' E 012°50'0 0.0
2016-May-21 22:32N 55°52' E 012°50'0 0.0
2016-May-21 21:32N 55°52' E 012°50'0 0.0
2016-May-21 20:32N 55°52' E 012°50'0 0.0
2016-May-21 19:32N 55°52' E 012°50'0 0.0
2016-May-21 18:32N 55°52' E 012°50'0 0.0
2016-May-21 17:32N 55°52' E 012°50'0 0.0
2016-May-21 16:32N 55°52' E 012°50'0 0.0
2016-May-21 15:32N 55°52' E 012°50'0 0.0
2016-May-21 14:32N 55°52' E 012°50'0 0.0
2016-May-21 13:32N 55°52' E 012°50'0 0.0
2016-May-21 12:32N 55°52' E 012°50'0 0.0
2016-May-21 11:32N 55°52' E 012°50'0 0.0
2016-May-21 10:32N 55°52' E 012°50'0 0.0
2016-May-21 09:32N 55°52' E 012°50'0 0.0
2016-May-21 08:32N 55°52' E 012°50'0 0.0
2016-May-21 07:32N 55°52' E 012°50'0 0.0
2016-May-21 06:32N 55°52' E 012°50'0 0.0
2016-May-21 05:32N 55°52' E 012°50'0 0.0
2016-May-21 04:32N 55°52' E 012°50'0 0.0
2016-May-21 03:32N 55°52' E 012°50'0 0.0
2016-May-21 02:32N 55°52' E 012°50'0 0.0
2016-May-21 01:32N 55°52' E 012°50'0 0.0
2016-May-21 00:32N 55°52' E 012°50'0 0.0
2016-May-20 23:32N 55°52' E 012°50'0 0.0
2016-May-20 22:32N 55°52' E 012°50'0 0.0
2016-May-20 21:32N 55°52' E 012°50'0 0.0
2016-May-20 20:32N 55°52' E 012°50'0 0.0
2016-May-20 19:32N 55°52' E 012°50'0 0.0
2016-May-20 18:31N 55°52' E 012°50'0 0.0
2016-May-20 17:31N 55°52' E 012°50'0 0.2
2016-May-20 16:33N 55°52' E 012°50'3 2.9
2016-May-20 15:33N 55°51' E 012°45'6 5.8
2016-May-20 14:33N 55°46' E 012°42'9 8.8
2016-May-20 13:34N 55°37' E 012°42'1010.3
2016-May-20 12:34N 55°27' E 012°42'9 9.0
2016-May-20 11:34N 55°18' E 012°45'1010.3
2016-May-20 10:34N 55°16' E 013°03'1010.2
2016-May-20 09:33N 55°15' E 013°21'1010.3
2016-May-20 08:33N 55°15' E 013°39'1110.7
2016-May-20 07:34N 55°14' E 013°57'1110.5
2016-May-20 06:33N 55°14' E 014°16'1110.6
2016-May-20 05:33N 55°22' E 014°29'1110.6
2016-May-20 04:33N 55°28' E 014°44'1110.8
2016-May-20 03:33N 55°34' E 014°60'1110.8
2016-May-20 02:33N 55°40' E 015°16'1110.8
2016-May-20 01:33N 55°45' E 015°33'300 9.7
2016-May-18 18:31N 59°19' E 022°05'10 9.5
2016-May-18 17:28N 59°25' E 022°21'20 9.4
2016-May-18 15:17N 59°34' E 022°58'7 9.6
2016-May-18 14:33N 59°36' E 023°11'9 9.5
2016-May-18 13:34N 59°38' E 023°29'1010.0
2016-May-18 12:33N 59°41' E 023°48'1010.1
2016-May-18 11:33N 59°44' E 024°07'49 9.8
2016-May-18 06:33N 59°55' E 025°42'10 9.6
2016-May-18 05:32N 59°57' E 026°01'9 9.6
2016-May-18 04:33N 59°60' E 026°20'10 9.6
2016-May-18 03:33N 60°01' E 026°39'10 9.6
2016-May-18 02:32N 59°60' E 026°58'10 9.2
2016-May-18 01:30N 60°03' E 027°16'9 9.3
2016-May-18 00:33N 60°08' E 027°31'10 9.6
2016-May-17 23:33N 60°13' E 027°47'10 9.5
2016-May-17 22:33N 60°21' E 027°59'12 9.2
2016-May-17 21:14N 60°28' E 028°18'20 0.5
2016-May-16 05:30N 60°14' E 027°50'1010.1
2016-May-16 04:33N 60°08' E 027°36'1010.1
2016-May-16 03:33N 60°03' E 027°18'1010.0
2016-May-16 02:33N 59°58' E 027°00'10 9.9
2016-May-16 01:33N 59°59' E 026°41'1010.2
2016-May-16 00:34N 59°57' E 026°21'1010.2
2016-May-15 23:33N 59°54' E 026°02'6310.5
2016-May-15 17:32N 59°39' E 023°60'1110.4
2016-May-15 16:30N 59°35' E 023°40'1010.3
2016-May-15 15:29N 59°32' E 023°20'  

Dump ship's entire track history